createdAt,value
2019-01-19T00:01:13.572Z,-0.20
2019-01-19T00:03:48.372Z,-0.20
2019-01-19T00:06:23.062Z,-0.10
2019-01-19T00:08:52.261Z,-0.10
2019-01-19T00:11:24.471Z,-0.10
2019-01-19T00:13:56.372Z,-0.10
2019-01-19T00:16:34.168Z,-0.10
2019-01-19T00:19:39.068Z,0.00
2019-01-19T00:22:22.761Z,0.00
2019-01-19T00:25:00.646Z,0.00
2019-01-19T00:27:35.438Z,0.00
2019-01-19T00:30:15.960Z,-0.10
2019-01-19T00:32:56.669Z,-0.20
2019-01-19T00:35:37.187Z,-0.30
2019-01-19T00:38:32.691Z,-0.30
2019-01-19T00:41:12.971Z,-0.30
2019-01-19T00:43:43.148Z,-0.30
2019-01-19T00:46:17.802Z,-0.30
2019-01-19T00:48:52.692Z,-0.40
2019-01-19T00:51:24.606Z,-0.30
2019-01-19T00:53:59.338Z,-0.20
2019-01-19T00:56:49.163Z,-0.30
2019-01-19T00:59:23.793Z,-0.20
2019-01-19T01:02:22.561Z,-0.20
2019-01-19T01:04:54.690Z,-0.30
2019-01-19T01:07:26.492Z,-0.30
2019-01-19T01:10:10.194Z,-0.30
2019-01-19T01:13:07.083Z,-0.30
2019-01-19T01:16:07.055Z,-0.30
2019-01-19T01:18:41.714Z,-0.40
2019-01-19T01:21:26.080Z,-0.40
2019-01-19T01:24:06.415Z,-0.40
2019-01-19T01:26:56.636Z,-0.50
2019-01-19T01:29:34.198Z,-0.50
2019-01-19T01:32:11.678Z,-0.50
2019-01-19T01:35:01.255Z,-0.40
2019-01-19T01:37:39.192Z,-0.40
2019-01-19T01:40:25.928Z,-0.30
2019-01-19T01:43:12.817Z,-0.40
2019-01-19T01:46:12.665Z,-0.50
2019-01-19T01:48:47.015Z,-0.50
2019-01-19T01:51:24.736Z,-0.60
2019-01-19T01:54:02.587Z,-0.60
2019-01-19T01:56:31.466Z,-0.60
2019-01-19T01:59:12.303Z,-0.60
2019-01-19T02:01:44.482Z,-0.60
2019-01-19T02:04:31.204Z,-0.50
2019-01-19T02:07:19.010Z,-0.50
2019-01-19T02:10:14.517Z,-0.60
2019-01-19T02:12:46.783Z,-0.60
2019-01-19T02:15:39.278Z,-0.60
2019-01-19T02:18:44.067Z,-0.60
2019-01-19T02:21:33.888Z,-0.60
2019-01-19T02:24:15.051Z,-0.60
2019-01-19T02:27:04.903Z,-0.60
2019-01-19T02:29:51.410Z,-0.60
2019-01-19T02:32:48.107Z,-0.60
2019-01-19T02:35:31.486Z,-0.60
2019-01-19T02:38:18.198Z,-0.70
2019-01-19T02:40:56.105Z,-0.70
2019-01-19T02:43:36.826Z,-0.70
2019-01-19T02:46:20.870Z,-0.70
2019-01-19T02:49:04.651Z,-0.80
2019-01-19T02:51:48.431Z,-0.80
2019-01-19T02:54:44.215Z,-0.80
2019-01-19T02:57:27.593Z,-0.80
2019-01-19T03:00:21.865Z,-0.70
2019-01-19T03:03:11.232Z,-0.70
2019-01-19T03:05:56.091Z,-0.70
2019-01-19T03:08:43.318Z,-0.70
2019-01-19T03:11:21.029Z,-0.80
2019-01-19T03:14:01.528Z,-0.80
2019-01-19T03:16:49.350Z,-0.80
2019-01-19T03:19:38.787Z,-0.80
2019-01-19T03:22:25.659Z,-0.90
2019-01-19T03:25:03.074Z,-0.90
2019-01-19T03:27:43.593Z,-0.90
2019-01-19T03:30:46.610Z,-0.80
2019-01-19T03:33:39.082Z,-0.80
2019-01-19T03:36:28.751Z,-0.90
2019-01-19T03:39:05.129Z,-0.90
2019-01-19T03:41:43.340Z,-0.90
2019-01-19T03:44:24.186Z,-0.90
2019-01-19T03:47:16.948Z,-0.90
2019-01-19T03:50:07.028Z,-0.90
2019-01-19T03:52:40.172Z,-0.90
2019-01-19T03:55:44.631Z,-0.80
2019-01-19T03:58:35.892Z,-0.90
2019-01-19T04:01:19.985Z,-0.90
2019-01-19T04:04:00.079Z,-0.90
2019-01-19T04:06:32.325Z,-0.80
2019-01-19T04:09:21.990Z,-0.80
2019-01-19T04:12:09.894Z,-0.80
2019-01-19T04:14:53.595Z,-0.90
2019-01-19T04:17:44.641Z,-0.90
2019-01-19T04:20:16.372Z,-0.90
2019-01-19T04:22:45.697Z,-0.90
2019-01-19T04:25:17.592Z,-0.80
2019-01-19T04:27:46.863Z,-0.90
2019-01-19T04:30:16.114Z,-0.90
2019-01-19T04:32:45.245Z,-0.80
2019-01-19T04:35:14.487Z,-0.80
2019-01-19T04:37:43.338Z,-0.80
2019-01-19T04:40:12.911Z,-0.80
2019-01-19T04:42:43.085Z,-0.80
2019-01-19T04:45:11.870Z,-0.80
2019-01-19T04:47:40.728Z,-0.80
2019-01-19T04:50:11.577Z,-0.80
2019-01-19T04:52:40.391Z,-0.90
2019-01-19T04:55:09.450Z,-0.90
2019-01-19T04:57:38.296Z,-0.90
2019-01-19T05:00:18.718Z,-0.90
2019-01-19T05:02:47.549Z,-0.90
2019-01-19T05:05:16.331Z,-1.00
2019-01-19T05:07:45.173Z,-1.00
2019-01-19T05:10:14.625Z,-0.90
2019-01-19T05:12:43.412Z,-0.90
2019-01-19T05:15:17.602Z,-0.90
2019-01-19T05:17:46.733Z,-0.90
2019-01-19T05:20:15.713Z,-0.90
2019-01-19T05:22:44.912Z,-0.90
2019-01-19T05:25:15.142Z,-0.90
2019-01-19T05:27:44.358Z,-0.90
2019-01-19T05:30:18.630Z,-0.90
2019-01-19T05:32:47.647Z,-0.90
2019-01-19T05:35:16.595Z,-0.80
2019-01-19T05:37:45.818Z,-0.80
2019-01-19T05:40:14.715Z,-0.70
2019-01-19T05:42:43.602Z,-0.70
2019-01-19T05:45:14.084Z,-0.60
2019-01-19T05:47:43.352Z,-0.60
2019-01-19T05:50:15.097Z,-0.70
2019-01-19T05:52:44.317Z,-0.70
2019-01-19T05:55:13.606Z,-0.70
2019-01-19T05:57:42.482Z,-0.60
2019-01-19T06:00:14.435Z,-0.60
2019-01-19T06:02:43.541Z,-0.70
2019-01-19T06:05:12.370Z,-0.70
2019-01-19T06:07:41.726Z,-0.70
2019-01-19T06:10:16.098Z,-0.70
2019-01-19T06:12:44.853Z,-0.70
2019-01-19T06:15:15.408Z,-0.70
2019-01-19T06:17:44.181Z,-0.70
2019-01-19T06:20:17.741Z,-0.70
2019-01-19T06:22:46.562Z,-0.70
2019-01-19T06:25:16.288Z,-0.70
2019-01-19T06:27:45.174Z,-0.70
2019-01-19T06:30:21.442Z,-0.70
2019-01-19T06:32:50.223Z,-0.70
2019-01-19T06:35:19.107Z,-0.70
2019-01-19T06:37:48.365Z,-0.70
2019-01-19T06:40:18.600Z,-0.80
2019-01-19T06:42:47.533Z,-0.70
2019-01-19T06:45:20.976Z,-0.70
2019-01-19T06:47:50.101Z,-0.80
2019-01-19T06:50:19.618Z,-0.70
2019-01-19T06:52:48.920Z,-0.80
2019-01-19T06:55:20.611Z,-0.80
2019-01-19T06:57:49.401Z,-0.80
2019-01-19T07:00:19.542Z,-0.80
2019-01-19T07:02:48.294Z,-0.80
2019-01-19T07:05:17.075Z,-0.80
2019-01-19T07:07:45.972Z,-0.80
2019-01-19T07:10:24.111Z,-0.80
2019-01-19T07:12:52.834Z,-0.70
2019-01-19T07:15:21.652Z,-0.70
2019-01-19T07:17:50.449Z,-0.70
2019-01-19T07:20:24.836Z,-0.70
2019-01-19T07:22:53.649Z,-0.80
2019-01-19T07:25:22.881Z,-0.80
2019-01-19T07:27:51.613Z,-0.70
2019-01-19T07:30:20.622Z,-0.80
2019-01-19T07:32:49.527Z,-0.80
2019-01-19T07:35:18.478Z,-0.90
2019-01-19T07:37:47.346Z,-0.80
2019-01-19T07:40:18.062Z,-0.80
2019-01-19T07:42:49.270Z,-0.80
2019-01-19T07:45:18.464Z,-0.70
2019-01-19T07:47:47.293Z,-0.70
2019-01-19T07:50:19.457Z,-0.70
2019-01-19T07:52:48.363Z,-0.80
2019-01-19T07:55:18.664Z,-0.80
2019-01-19T07:57:47.905Z,-0.80
2019-01-19T08:00:28.805Z,-0.70
2019-01-19T08:02:57.669Z,-0.60
2019-01-19T08:05:27.057Z,-0.60
2019-01-19T08:07:56.084Z,-0.60
2019-01-19T08:10:24.902Z,-0.60
2019-01-19T08:12:53.810Z,-0.50
2019-01-19T08:15:24.783Z,-0.60
2019-01-19T08:17:53.716Z,-0.50
2019-01-19T08:20:22.540Z,-0.50
2019-01-19T08:22:51.504Z,-0.40
2019-01-19T08:25:20.736Z,-0.40
2019-01-19T08:27:49.659Z,-0.40
2019-01-19T08:30:23.623Z,-0.40
2019-01-19T08:32:52.536Z,-0.40
2019-01-19T08:35:21.896Z,-0.40
2019-01-19T08:37:50.843Z,-0.50
2019-01-19T08:40:35.729Z,-0.50
2019-01-19T08:43:08.930Z,-0.50
2019-01-19T08:45:37.455Z,-0.50
2019-01-19T08:48:06.431Z,-0.40
2019-01-19T08:50:35.218Z,-0.30
2019-01-19T08:53:04.232Z,-0.30
2019-01-19T08:55:33.009Z,-0.40
2019-01-19T08:58:01.854Z,-0.30
2019-01-19T09:00:30.628Z,-0.30
2019-01-19T09:02:59.976Z,-0.20
2019-01-19T09:05:28.779Z,-0.10
2019-01-19T09:07:57.636Z,-0.10
2019-01-19T09:10:26.506Z,-0.10
2019-01-19T09:12:55.366Z,-0.10
2019-01-19T09:15:25.945Z,0.00
2019-01-19T09:17:54.814Z,0.00
2019-01-19T09:20:24.044Z,0.00
2019-01-19T09:23:02.959Z,0.00
2019-01-19T09:25:31.857Z,0.10
2019-01-19T09:28:01.088Z,0.10
2019-01-19T09:30:29.949Z,0.20
2019-01-19T09:32:59.769Z,0.30
2019-01-19T09:35:28.657Z,0.30
2019-01-19T09:37:57.609Z,0.30
2019-01-19T09:40:26.918Z,0.30
2019-01-19T09:42:55.663Z,0.40
2019-01-19T09:45:24.543Z,0.40
2019-01-19T09:47:53.862Z,0.50
2019-01-19T09:50:22.880Z,0.60
2019-01-19T09:52:51.719Z,0.60
2019-01-19T09:55:20.615Z,0.60
2019-01-19T09:57:50.016Z,0.60
2019-01-19T10:00:27.686Z,0.70
2019-01-19T10:02:57.175Z,0.70
2019-01-19T10:05:29.509Z,0.80
2019-01-19T10:07:58.509Z,0.80
2019-01-19T10:10:27.837Z,0.80
2019-01-19T10:12:56.952Z,1.00
2019-01-19T10:15:30.588Z,1.10
2019-01-19T10:17:56.775Z,1.00
2019-01-19T10:20:30.349Z,1.10
2019-01-19T10:22:59.840Z,1.20
2019-01-19T10:25:28.702Z,1.20
2019-01-19T10:27:57.633Z,1.20
2019-01-19T10:30:31.718Z,1.30
2019-01-19T10:33:00.712Z,1.30
2019-01-19T10:35:29.662Z,1.30
2019-01-19T10:37:59.426Z,1.30
2019-01-19T10:40:28.916Z,1.30
2019-01-19T10:42:57.703Z,1.40
2019-01-19T10:45:28.812Z,1.40
2019-01-19T10:47:58.090Z,1.50
2019-01-19T10:50:26.945Z,1.50
2019-01-19T10:52:56.055Z,1.50
2019-01-19T10:55:26.041Z,1.60
2019-01-19T10:57:55.278Z,1.60
2019-01-19T11:00:37.260Z,1.70
2019-01-19T11:03:06.512Z,1.70
2019-01-19T11:05:35.447Z,1.80
2019-01-19T11:08:06.051Z,1.90
2019-01-19T11:10:35.869Z,1.90
2019-01-19T11:13:07.096Z,2.00
2019-01-19T11:15:36.176Z,2.10
2019-01-19T11:18:06.072Z,2.10
2019-01-19T11:20:39.308Z,2.20
2019-01-19T11:23:08.621Z,2.20
2019-01-19T11:25:37.458Z,2.30
2019-01-19T11:28:06.417Z,2.30
2019-01-19T11:30:35.577Z,2.40
2019-01-19T11:33:04.628Z,2.40
2019-01-19T11:35:33.604Z,2.50
2019-01-19T11:38:02.484Z,2.50
2019-01-19T11:40:36.158Z,2.60
2019-01-19T11:43:06.560Z,2.60
2019-01-19T11:45:35.880Z,2.70
2019-01-19T11:48:05.970Z,2.70
2019-01-19T11:50:34.781Z,2.80
2019-01-19T11:53:03.638Z,2.90
2019-01-19T11:55:32.530Z,2.90
2019-01-19T11:58:02.692Z,2.80
2019-01-19T12:00:34.407Z,2.80
2019-01-19T12:03:03.514Z,2.90
2019-01-19T12:05:32.397Z,2.80
2019-01-19T12:08:03.992Z,2.80
2019-01-19T12:10:33.017Z,2.90
2019-01-19T12:13:01.875Z,2.90
2019-01-19T12:15:31.040Z,2.90
2019-01-19T12:17:59.824Z,3.00
2019-01-19T12:20:31.225Z,2.90
2019-01-19T12:23:00.032Z,2.80
2019-01-19T12:25:29.387Z,2.80
2019-01-19T12:27:59.800Z,2.90
2019-01-19T12:30:30.588Z,2.90
2019-01-19T12:32:59.394Z,2.80
2019-01-19T12:35:28.405Z,2.80
2019-01-19T12:37:57.967Z,2.80
2019-01-19T12:40:29.347Z,2.90
2019-01-19T12:43:03.558Z,2.90
2019-01-19T12:45:38.396Z,2.90
2019-01-19T12:48:07.046Z,2.90
2019-01-19T12:50:35.914Z,2.90
2019-01-19T12:53:05.139Z,2.90
2019-01-19T12:55:33.897Z,2.80
2019-01-19T12:58:02.725Z,2.70
2019-01-19T13:00:31.900Z,2.80
2019-01-19T13:03:00.721Z,2.80
2019-01-19T13:05:44.188Z,2.90
2019-01-19T13:08:18.990Z,3.00
2019-01-19T13:11:10.249Z,3.00
2019-01-19T13:13:41.721Z,3.00
2019-01-19T13:16:38.661Z,3.00
2019-01-19T13:19:16.050Z,3.00
2019-01-19T13:22:07.686Z,3.00
2019-01-19T13:24:55.881Z,3.00
2019-01-19T13:27:33.363Z,3.10
2019-01-19T13:30:36.355Z,3.10
2019-01-19T13:33:13.843Z,3.00
2019-01-19T13:35:49.061Z,3.10
2019-01-19T13:38:49.391Z,3.10
2019-01-19T13:41:37.410Z,3.20
2019-01-19T13:44:25.201Z,3.20
2019-01-19T13:47:02.822Z,3.20
2019-01-19T13:49:49.019Z,3.20
2019-01-19T13:52:26.591Z,3.10
2019-01-19T13:55:10.292Z,3.10
2019-01-19T13:57:44.730Z,3.10
2019-01-19T14:00:28.360Z,3.10
2019-01-19T14:03:11.946Z,3.10
2019-01-19T14:05:55.586Z,3.00
2019-01-19T14:08:33.252Z,3.00
2019-01-19T14:11:31.937Z,3.00
2019-01-19T14:14:22.802Z,3.00
2019-01-19T14:17:06.877Z,2.90
2019-01-19T14:19:50.761Z,2.90
2019-01-19T14:22:25.347Z,2.90
2019-01-19T14:25:08.803Z,2.90
2019-01-19T14:27:43.267Z,2.90
2019-01-19T14:30:30.765Z,2.90
2019-01-19T14:33:17.192Z,2.80
2019-01-19T14:35:58.273Z,2.90
2019-01-19T14:38:33.011Z,2.90
2019-01-19T14:41:22.531Z,2.80
2019-01-19T14:43:54.330Z,2.80
2019-01-19T14:46:43.822Z,2.80
2019-01-19T14:49:33.870Z,2.80
2019-01-19T14:52:18.115Z,2.70
2019-01-19T14:55:18.410Z,2.70
2019-01-19T14:58:02.335Z,2.70
2019-01-19T15:00:39.874Z,2.70
2019-01-19T15:03:30.903Z,2.70
2019-01-19T15:06:22.260Z,2.70
2019-01-19T15:09:16.329Z,2.70
2019-01-19T15:11:59.818Z,2.80
2019-01-19T15:14:54.242Z,2.80
2019-01-19T15:17:43.051Z,2.70
2019-01-19T15:20:33.330Z,2.70
2019-01-19T15:23:14.114Z,2.60
2019-01-19T15:25:48.666Z,2.50
2019-01-19T15:28:23.474Z,2.40
2019-01-19T15:30:55.439Z,2.40
2019-01-19T15:33:29.770Z,2.40
2019-01-19T15:36:10.168Z,2.40
2019-01-19T15:38:56.468Z,2.40
2019-01-19T15:41:36.814Z,2.40
2019-01-19T15:44:17.207Z,2.40
2019-01-19T15:47:16.466Z,2.30
2019-01-19T15:49:53.727Z,2.30
2019-01-19T15:52:40.109Z,2.30
2019-01-19T15:55:17.503Z,2.20
2019-01-19T15:57:51.971Z,2.20
2019-01-19T16:00:32.655Z,2.10
2019-01-19T16:03:18.950Z,2.10
2019-01-19T16:05:56.750Z,2.00
2019-01-19T16:08:28.593Z,2.00
2019-01-19T16:11:14.942Z,2.00
2019-01-19T16:13:58.323Z,1.90
2019-01-19T16:16:45.376Z,1.90
2019-01-19T16:19:45.727Z,1.90
2019-01-19T16:22:33.570Z,1.90
2019-01-19T16:25:07.938Z,1.90
2019-01-19T16:27:58.995Z,1.90
2019-01-19T16:30:33.913Z,1.80
2019-01-19T16:33:21.883Z,1.80
2019-01-19T16:35:59.446Z,1.70
2019-01-19T16:38:59.225Z,1.80
2019-01-19T16:41:51.768Z,1.80
2019-01-19T16:44:32.169Z,1.70
2019-01-19T16:47:20.020Z,1.60
2019-01-19T16:49:51.829Z,1.60
2019-01-19T16:52:29.255Z,1.50
2019-01-19T16:55:07.239Z,1.50
2019-01-19T16:58:03.154Z,1.50
2019-01-19T17:00:53.632Z,1.50
2019-01-19T17:03:43.456Z,1.50
2019-01-19T17:06:15.211Z,1.50
2019-01-19T17:09:19.528Z,1.50
2019-01-19T17:12:06.142Z,1.40
2019-01-19T17:14:46.770Z,1.50
2019-01-19T17:17:34.691Z,1.40
2019-01-19T17:20:15.131Z,1.40
2019-01-19T17:22:46.880Z,1.40
2019-01-19T17:25:46.828Z,1.40
2019-01-19T17:28:24.403Z,1.40
2019-01-19T17:31:17.109Z,1.30
2019-01-19T17:34:09.563Z,1.30
2019-01-19T17:36:41.261Z,1.30
2019-01-19T17:39:44.512Z,1.30
2019-01-19T17:42:28.123Z,1.30
2019-01-19T17:45:15.965Z,1.30
2019-01-19T17:48:09.087Z,1.30
2019-01-19T17:50:50.016Z,1.30
2019-01-19T17:53:44.912Z,1.20
2019-01-19T17:56:32.138Z,1.20
2019-01-19T17:59:09.307Z,1.20
2019-01-19T18:01:43.752Z,1.20
2019-01-19T18:04:27.036Z,1.20
2019-01-19T18:07:01.486Z,1.20
2019-01-19T18:09:47.589Z,1.20
2019-01-19T18:12:21.234Z,1.10
2019-01-19T18:15:13.758Z,1.10
2019-01-19T18:18:00.375Z,1.00
2019-01-19T18:20:40.298Z,1.10
2019-01-19T18:23:32.835Z,1.00
2019-01-19T18:26:18.953Z,1.10
2019-01-19T18:28:58.031Z,1.10
2019-01-19T18:31:59.495Z,1.10
2019-01-19T18:34:36.905Z,1.00
2019-01-19T18:37:24.734Z,1.00
2019-01-19T18:40:08.402Z,1.00
2019-01-19T18:42:58.008Z,1.00
2019-01-19T18:45:44.605Z,1.00
2019-01-19T18:48:19.611Z,1.00
2019-01-19T18:51:03.719Z,0.90
2019-01-19T18:53:44.209Z,1.00
2019-01-19T18:56:24.597Z,1.00
2019-01-19T18:59:07.876Z,1.00
2019-01-19T19:01:48.238Z,0.90
2019-01-19T19:04:29.079Z,0.80
2019-01-19T19:07:09.709Z,0.70
2019-01-19T19:09:47.143Z,0.60
2019-01-19T19:12:21.615Z,0.60
2019-01-19T19:14:56.036Z,0.60
2019-01-19T19:17:43.597Z,0.60
2019-01-19T19:20:15.219Z,0.60
2019-01-19T19:22:55.713Z,0.60
2019-01-19T19:25:27.514Z,0.60
2019-01-19T19:28:17.999Z,0.50
2019-01-19T19:30:58.402Z,0.50
2019-01-19T19:33:41.818Z,0.50
2019-01-19T19:36:40.079Z,0.50
2019-01-19T19:39:20.625Z,0.50
2019-01-19T19:41:57.870Z,0.50
2019-01-19T19:44:50.064Z,0.40
2019-01-19T19:47:36.455Z,0.40
2019-01-19T19:50:25.811Z,0.40
2019-01-19T19:52:54.274Z,0.40
2019-01-19T19:55:21.939Z,0.40
2019-01-19T19:57:50.727Z,0.30
2019-01-19T20:00:19.243Z,0.30
2019-01-19T20:02:47.778Z,0.20
2019-01-19T20:05:17.087Z,0.20
2019-01-19T20:07:45.525Z,0.20
2019-01-19T20:10:17.279Z,0.20
2019-01-19T20:12:44.545Z,0.30
2019-01-19T20:15:13.551Z,0.30
2019-01-19T20:17:42.077Z,0.10
2019-01-19T20:20:11.454Z,0.10
2019-01-19T20:22:40.260Z,0.10
2019-01-19T20:25:08.954Z,0.00
2019-01-19T20:27:37.409Z,0.00
2019-01-19T20:30:18.150Z,-0.10
2019-01-19T20:32:46.633Z,-0.10
2019-01-19T20:35:15.185Z,-0.10
2019-01-19T20:37:43.742Z,-0.10
2019-01-19T20:40:12.306Z,-0.10
2019-01-19T20:42:40.771Z,-0.20
2019-01-19T20:45:12.080Z,-0.20
2019-01-19T20:47:40.534Z,-0.30
2019-01-19T20:50:11.486Z,-0.40
2019-01-19T20:52:40.298Z,-0.40
2019-01-19T20:55:10.645Z,-0.50
2019-01-19T20:57:39.164Z,-0.50
2019-01-19T21:00:14.341Z,-0.40
2019-01-19T21:02:42.895Z,-0.40
2019-01-19T21:05:11.556Z,-0.40
2019-01-19T21:07:40.111Z,-0.40
2019-01-19T21:10:08.763Z,-0.50
2019-01-19T21:12:37.289Z,-0.50
2019-01-19T21:15:11.514Z,-0.50
2019-01-19T21:17:40.096Z,-0.50
2019-01-19T21:20:11.102Z,-0.40
2019-01-19T21:22:39.693Z,-0.50
2019-01-19T21:25:10.021Z,-0.50
2019-01-19T21:27:38.586Z,-0.60
2019-01-19T21:30:10.505Z,-0.60
2019-01-19T21:32:39.116Z,-0.50
2019-01-19T21:35:08.011Z,-0.70
2019-01-19T21:37:36.793Z,-0.70
2019-01-19T21:40:11.084Z,-0.80
2019-01-19T21:42:39.805Z,-0.80
2019-01-19T21:45:11.748Z,-0.70
2019-01-19T21:47:40.937Z,-0.70
2019-01-19T21:50:11.460Z,-0.60
2019-01-19T21:52:40.208Z,-0.70
2019-01-19T21:55:09.935Z,-0.70
2019-01-19T21:57:38.580Z,-0.70
2019-01-19T22:00:16.213Z,-0.70
2019-01-19T22:02:45.419Z,-0.60
2019-01-19T22:05:14.219Z,-0.60
2019-01-19T22:07:43.276Z,-0.60
2019-01-19T22:10:20.001Z,-0.50
2019-01-19T22:12:48.814Z,-0.60
2019-01-19T22:15:18.692Z,-0.70
2019-01-19T22:17:47.497Z,-0.70
2019-01-19T22:20:17.891Z,-0.70
2019-01-19T22:22:47.611Z,-0.80
2019-01-19T22:25:17.046Z,-0.90
2019-01-19T22:27:49.241Z,-1.00
2019-01-19T22:30:22.646Z,-0.90
2019-01-19T22:32:53.534Z,-1.00
2019-01-19T22:35:24.309Z,-1.00
2019-01-19T22:37:53.096Z,-1.00
2019-01-19T22:40:21.987Z,-0.90
2019-01-19T22:42:51.927Z,-0.90
2019-01-19T22:45:20.716Z,-0.90
2019-01-19T22:47:49.459Z,-1.00
2019-01-19T22:50:19.089Z,-1.10
2019-01-19T22:52:48.237Z,-1.10
2019-01-19T22:55:17.260Z,-1.10
2019-01-19T22:57:45.934Z,-1.10
2019-01-19T23:00:26.983Z,-1.10
2019-01-19T23:02:56.097Z,-1.10
2019-01-19T23:05:25.168Z,-1.20
2019-01-19T23:07:53.916Z,-1.30
2019-01-19T23:10:22.735Z,-1.30
2019-01-19T23:12:51.794Z,-1.40
2019-01-19T23:15:20.666Z,-1.40
2019-01-19T23:17:49.385Z,-1.40
2019-01-19T23:20:18.238Z,-1.40
2019-01-19T23:22:47.454Z,-1.30
2019-01-19T23:25:16.177Z,-1.40
2019-01-19T23:27:45.397Z,-1.30
2019-01-19T23:30:15.784Z,-1.40
2019-01-19T23:32:44.933Z,-1.40
2019-01-19T23:35:14.167Z,-1.40
2019-01-19T23:37:43.265Z,-1.40
2019-01-19T23:40:13.549Z,-1.40
2019-01-19T23:42:47.049Z,-1.40
2019-01-19T23:45:13.034Z,-1.40
2019-01-19T23:47:42.216Z,-1.40
2019-01-19T23:50:11.418Z,-1.40
2019-01-19T23:52:40.585Z,-1.50
2019-01-19T23:55:09.403Z,-1.50
2019-01-19T23:57:38.427Z,-1.60
